createdAt,value
2023-04-26T00:00:13.384Z,0.00
2023-04-26T00:01:13.348Z,0.00
2023-04-26T00:02:13.381Z,0.00
2023-04-26T00:03:13.566Z,0.00
2023-04-26T00:04:13.520Z,0.00
2023-04-26T00:05:13.466Z,0.00
2023-04-26T00:06:13.299Z,0.00
2023-04-26T00:07:13.310Z,0.00
2023-04-26T00:08:13.309Z,0.00
2023-04-26T00:09:13.272Z,0.00
2023-04-26T00:10:13.308Z,0.00
2023-04-26T00:11:13.268Z,0.00
2023-04-26T00:12:13.285Z,0.00
2023-04-26T00:13:13.256Z,0.00
2023-04-26T00:14:13.296Z,0.00
2023-04-26T00:15:13.256Z,0.00
2023-04-26T00:16:13.316Z,0.00
2023-04-26T00:17:13.224Z,0.00
2023-04-26T00:18:13.298Z,0.00
2023-04-26T00:19:13.250Z,0.00
2023-04-26T00:20:13.268Z,0.00
2023-04-26T00:21:13.210Z,0.00
2023-04-26T00:22:13.213Z,0.00
2023-04-26T00:23:13.209Z,0.00
2023-04-26T00:24:13.220Z,0.00
2023-04-26T00:25:13.223Z,0.00
2023-04-26T00:26:13.205Z,0.00
2023-04-26T00:27:13.167Z,0.00
2023-04-26T00:28:13.178Z,0.00
2023-04-26T00:29:13.181Z,0.00
2023-04-26T00:30:13.183Z,0.00
2023-04-26T00:31:13.183Z,0.00
2023-04-26T00:32:13.181Z,0.00
2023-04-26T00:33:13.157Z,0.00
2023-04-26T00:34:13.151Z,0.00
2023-04-26T00:35:13.142Z,0.00
2023-04-26T00:36:13.155Z,0.00
2023-04-26T00:37:13.124Z,0.00
2023-04-26T00:38:13.146Z,0.00
2023-04-26T00:39:13.143Z,0.00
2023-04-26T00:40:13.123Z,0.00
2023-04-26T00:41:13.114Z,0.00
2023-04-26T00:42:13.114Z,0.00
2023-04-26T00:43:13.101Z,0.00
2023-04-26T00:44:13.097Z,0.00
2023-04-26T00:45:13.090Z,0.00
2023-04-26T00:46:13.105Z,0.00
2023-04-26T00:47:13.058Z,0.00
2023-04-26T00:48:13.184Z,0.00
2023-04-26T00:49:13.051Z,0.00
2023-04-26T00:50:13.086Z,0.00
2023-04-26T00:51:13.058Z,0.00
2023-04-26T00:52:13.049Z,0.00
2023-04-26T00:53:13.027Z,0.00
2023-04-26T00:54:13.041Z,0.00
2023-04-26T00:55:13.049Z,0.00
2023-04-26T00:56:13.096Z,0.00
2023-04-26T00:57:13.015Z,0.00
2023-04-26T00:58:13.029Z,0.00
2023-04-26T00:59:12.999Z,0.00
2023-04-26T01:00:13.009Z,0.00
2023-04-26T01:01:13.062Z,0.00
2023-04-26T01:02:13.121Z,0.00
2023-04-26T01:03:13.128Z,0.00
2023-04-26T01:04:13.126Z,0.00
2023-04-26T01:05:13.007Z,0.00
2023-04-26T01:06:13.012Z,0.00
2023-04-26T01:07:12.961Z,0.00
2023-04-26T01:08:12.971Z,0.00
2023-04-26T01:09:12.943Z,0.00
2023-04-26T01:10:12.962Z,0.00
2023-04-26T01:11:12.958Z,0.00
2023-04-26T01:12:12.962Z,0.00
2023-04-26T01:13:12.941Z,0.00
2023-04-26T01:14:12.953Z,0.00
2023-04-26T01:15:12.930Z,0.00
2023-04-26T01:16:12.928Z,0.00
2023-04-26T01:17:12.990Z,0.00
2023-04-26T01:18:12.939Z,0.00
2023-04-26T01:19:12.931Z,0.00
2023-04-26T01:20:12.994Z,0.00
2023-04-26T01:21:12.889Z,0.00
2023-04-26T01:22:12.899Z,0.00
2023-04-26T01:23:12.893Z,0.00
2023-04-26T01:24:13.001Z,0.00
2023-04-26T01:25:12.867Z,0.00
2023-04-26T01:26:12.902Z,0.00
2023-04-26T01:27:12.867Z,0.00
2023-04-26T01:28:12.864Z,0.00
2023-04-26T01:29:12.840Z,0.00
2023-04-26T01:30:12.883Z,0.00
2023-04-26T01:31:12.904Z,0.00
2023-04-26T01:32:12.860Z,0.00
2023-04-26T01:33:12.826Z,0.00
2023-04-26T01:34:12.856Z,0.00
2023-04-26T01:35:12.844Z,0.00
2023-04-26T01:36:12.818Z,0.00
2023-04-26T01:37:12.812Z,0.00
2023-04-26T01:38:12.821Z,0.00
2023-04-26T01:39:12.792Z,0.00
2023-04-26T01:40:12.848Z,0.00
2023-04-26T01:41:12.774Z,0.00
2023-04-26T01:42:12.809Z,0.00
2023-04-26T01:43:12.763Z,0.00
2023-04-26T01:44:12.817Z,0.00
2023-04-26T01:45:12.791Z,0.00
2023-04-26T01:46:12.836Z,0.00
2023-04-26T01:47:12.808Z,0.00
2023-04-26T01:48:12.773Z,0.00
2023-04-26T01:49:12.729Z,0.00
2023-04-26T01:50:12.739Z,0.00
2023-04-26T01:51:12.749Z,0.00
2023-04-26T01:52:12.719Z,0.00
2023-04-26T01:53:12.703Z,0.00
2023-04-26T01:54:12.725Z,0.00
2023-04-26T01:55:12.685Z,0.00
2023-04-26T01:56:12.725Z,0.00
2023-04-26T01:57:12.678Z,0.00
2023-04-26T01:58:12.715Z,0.00
2023-04-26T01:59:12.683Z,0.00
2023-04-26T02:00:12.692Z,0.00
2023-04-26T02:01:12.696Z,0.00
2023-04-26T02:02:12.708Z,0.00
2023-04-26T02:03:12.752Z,0.00
2023-04-26T02:04:12.679Z,0.00
2023-04-26T02:05:12.666Z,0.00
2023-04-26T02:06:12.658Z,0.00
2023-04-26T02:07:12.621Z,0.00
2023-04-26T02:08:12.643Z,0.00
2023-04-26T02:09:12.627Z,0.00
2023-04-26T02:10:12.621Z,0.00
2023-04-26T02:11:12.595Z,0.00
2023-04-26T02:12:12.615Z,0.00
2023-04-26T02:13:12.590Z,0.00
2023-04-26T02:14:12.622Z,0.00
2023-04-26T02:15:12.578Z,0.00
2023-04-26T02:16:12.625Z,0.00
2023-04-26T02:17:12.594Z,0.00
2023-04-26T02:18:12.625Z,0.00
2023-04-26T02:19:12.552Z,0.00
2023-04-26T02:20:12.581Z,0.00
2023-04-26T02:21:12.588Z,0.00
2023-04-26T02:22:12.560Z,0.00
2023-04-26T02:23:12.538Z,0.00
2023-04-26T02:24:12.532Z,0.00
2023-04-26T02:25:12.575Z,0.00
2023-04-26T02:26:12.527Z,0.00
2023-04-26T02:27:12.513Z,0.00
2023-04-26T02:28:12.525Z,0.00
2023-04-26T02:29:12.499Z,0.00
2023-04-26T02:30:12.499Z,0.00
2023-04-26T02:31:12.510Z,0.00
2023-04-26T02:32:12.506Z,0.00
2023-04-26T02:33:12.464Z,0.00
2023-04-26T02:34:12.501Z,0.00
2023-04-26T02:35:12.482Z,0.00
2023-04-26T02:36:12.502Z,0.00
2023-04-26T02:37:12.444Z,0.00
2023-04-26T02:38:12.458Z,0.00
2023-04-26T02:39:12.436Z,0.00
2023-04-26T02:40:12.479Z,0.00
2023-04-26T02:41:12.439Z,0.00
2023-04-26T02:42:12.446Z,0.00
2023-04-26T02:43:12.413Z,0.00
2023-04-26T02:44:12.461Z,0.00
2023-04-26T02:45:12.403Z,0.00
2023-04-26T02:46:12.405Z,0.00
2023-04-26T02:47:12.425Z,0.00
2023-04-26T02:48:12.396Z,0.00
2023-04-26T02:49:19.394Z,0.00
2023-04-26T02:50:12.397Z,0.00
2023-04-26T02:51:12.368Z,0.00
2023-04-26T02:52:12.412Z,0.00
2023-04-26T02:53:12.409Z,0.00
2023-04-26T02:54:12.404Z,0.00
2023-04-26T02:55:12.363Z,0.00
2023-04-26T02:56:12.362Z,0.00
2023-04-26T02:57:12.326Z,0.00
2023-04-26T02:58:12.388Z,0.00
2023-04-26T02:59:12.316Z,0.00
2023-04-26T03:00:12.403Z,0.00
2023-04-26T03:01:12.335Z,0.00
2023-04-26T03:02:12.387Z,0.00
2023-04-26T03:03:12.549Z,0.00
2023-04-26T03:04:12.399Z,0.00
2023-04-26T03:05:12.264Z,0.00
2023-04-26T03:06:12.309Z,0.00
2023-04-26T03:07:12.267Z,0.00
2023-04-26T03:08:12.283Z,0.00
2023-04-26T03:09:12.254Z,0.00
2023-04-26T03:10:12.265Z,0.00
2023-04-26T03:11:12.279Z,0.00
2023-04-26T03:12:12.262Z,0.00
2023-04-26T03:13:12.228Z,0.00
2023-04-26T03:14:12.229Z,0.00
2023-04-26T03:15:12.215Z,0.00
2023-04-26T03:16:12.279Z,0.00
2023-04-26T03:17:12.214Z,0.00
2023-04-26T03:18:12.202Z,0.00
2023-04-26T03:19:12.193Z,0.00
2023-04-26T03:20:12.240Z,1.00
2023-04-26T03:21:12.191Z,1.00
2023-04-26T03:22:12.197Z,1.00
2023-04-26T03:23:12.186Z,1.00
2023-04-26T03:24:12.189Z,1.00
2023-04-26T03:25:12.160Z,1.00
2023-04-26T03:26:12.191Z,0.00
2023-04-26T03:27:12.138Z,1.00
2023-04-26T03:28:12.158Z,1.00
2023-04-26T03:29:12.166Z,1.00
2023-04-26T03:30:12.143Z,1.00
2023-04-26T03:31:12.117Z,2.00
2023-04-26T03:32:12.282Z,2.00
2023-04-26T03:33:12.181Z,2.00
2023-04-26T03:34:12.121Z,2.00
2023-04-26T03:35:12.128Z,2.00
2023-04-26T03:36:12.097Z,5.00
2023-04-26T03:37:12.139Z,5.00
2023-04-26T03:38:12.102Z,4.00
2023-04-26T03:39:12.070Z,5.00
2023-04-26T03:40:12.100Z,4.00
2023-04-26T03:41:12.118Z,7.00
2023-04-26T03:42:12.071Z,10.00
2023-04-26T03:43:12.055Z,9.00
2023-04-26T03:44:12.066Z,12.00
2023-04-26T03:45:12.057Z,13.00
2023-04-26T03:46:12.141Z,16.00
2023-04-26T03:47:12.062Z,17.00
2023-04-26T03:48:12.243Z,22.00
2023-04-26T03:49:12.020Z,24.00
2023-04-26T03:50:12.032Z,27.00
2023-04-26T03:51:12.000Z,29.00
2023-04-26T03:52:12.036Z,33.00
2023-04-26T03:53:12.031Z,38.00
2023-04-26T03:54:12.015Z,43.00
2023-04-26T03:55:12.033Z,48.00
2023-04-26T03:56:12.008Z,54.00
2023-04-26T03:57:11.982Z,59.00
2023-04-26T03:58:12.005Z,66.00
2023-04-26T03:59:11.986Z,73.00
2023-04-26T04:00:11.963Z,81.00
2023-04-26T04:01:11.964Z,89.00
2023-04-26T04:02:12.031Z,98.00
2023-04-26T04:03:12.369Z,107.00
2023-04-26T04:04:12.299Z,115.00
2023-04-26T04:05:12.131Z,126.00
2023-04-26T04:06:11.937Z,138.00
2023-04-26T04:07:11.925Z,151.00
2023-04-26T04:08:12.043Z,165.00
2023-04-26T04:09:11.944Z,178.00
2023-04-26T04:10:11.914Z,195.00
2023-04-26T04:11:11.874Z,212.00
2023-04-26T04:12:11.904Z,232.00
2023-04-26T04:13:11.876Z,255.00
2023-04-26T04:14:11.919Z,284.00
2023-04-26T04:15:11.891Z,313.00
2023-04-26T04:16:11.911Z,344.00
2023-04-26T04:17:11.862Z,383.00
2023-04-26T04:18:11.906Z,431.00
2023-04-26T04:19:11.853Z,484.00
2023-04-26T04:20:11.858Z,549.00
2023-04-26T04:21:11.824Z,608.00
2023-04-26T04:22:11.853Z,687.00
2023-04-26T04:23:11.803Z,806.00
2023-04-26T04:24:11.845Z,869.00
2023-04-26T04:25:11.868Z,958.00
2023-04-26T04:26:11.815Z,1121.00
2023-04-26T04:27:11.824Z,1201.00
2023-04-26T04:28:11.834Z,1350.00
2023-04-26T04:29:11.766Z,1596.00
2023-04-26T04:30:11.776Z,1908.00
2023-04-26T04:31:11.824Z,2135.00
2023-04-26T04:32:11.757Z,2372.00
2023-04-26T04:33:11.752Z,2704.00
2023-04-26T04:34:11.755Z,2948.00
2023-04-26T04:35:11.774Z,3133.00
2023-04-26T04:36:11.817Z,3273.00
2023-04-26T04:37:11.734Z,3380.00
2023-04-26T04:38:11.728Z,3440.00
2023-04-26T04:39:11.708Z,3625.00
2023-04-26T04:40:11.902Z,3858.00
2023-04-26T04:41:11.720Z,4203.00
2023-04-26T04:42:11.740Z,4396.00
2023-04-26T04:43:11.702Z,4916.00
2023-04-26T04:44:11.734Z,5387.00
2023-04-26T04:45:11.667Z,5981.00
2023-04-26T04:46:12.738Z,6397.00
2023-04-26T04:47:11.686Z,6620.00
2023-04-26T04:48:11.949Z,7354.00
2023-04-26T04:49:11.683Z,8406.00
2023-04-26T04:50:11.651Z,8945.00
2023-04-26T04:51:11.654Z,9005.00
2023-04-26T04:52:11.654Z,10169.00
2023-04-26T04:53:11.620Z,11425.00
2023-04-26T04:54:11.657Z,12885.00
2023-04-26T04:55:11.634Z,14823.00
2023-04-26T04:56:11.623Z,16001.00
2023-04-26T04:57:11.595Z,16707.00
2023-04-26T04:58:11.599Z,17493.00
2023-04-26T04:59:11.628Z,17203.00
2023-04-26T05:00:11.636Z,15631.00
2023-04-26T05:01:11.610Z,15186.00
2023-04-26T05:02:11.636Z,14829.00
2023-04-26T05:03:11.732Z,14050.00
2023-04-26T05:04:11.751Z,14030.00
2023-04-26T05:05:11.667Z,14469.00
2023-04-26T05:06:11.564Z,15975.00
2023-04-26T05:07:11.564Z,16632.00
2023-04-26T05:08:11.567Z,16063.00
2023-04-26T05:09:11.541Z,16047.00
2023-04-26T05:10:11.541Z,15623.00
2023-04-26T05:11:11.579Z,17372.00
2023-04-26T05:12:11.536Z,16920.00
2023-04-26T05:13:11.526Z,15355.00
2023-04-26T05:14:11.511Z,14894.00
2023-04-26T05:15:11.500Z,16069.00
2023-04-26T05:16:11.932Z,18720.00
2023-04-26T05:17:11.537Z,19683.00
2023-04-26T05:18:11.612Z,17499.00
2023-04-26T05:19:11.498Z,17073.00
2023-04-26T05:20:11.507Z,17927.00
2023-04-26T05:21:11.497Z,19965.00
2023-04-26T05:22:11.488Z,19142.00
2023-04-26T05:23:11.484Z,16043.00
2023-04-26T05:24:11.465Z,15036.00
2023-04-26T05:25:11.480Z,14943.00
2023-04-26T05:26:11.456Z,14254.00
2023-04-26T05:27:11.445Z,14403.00
2023-04-26T05:28:11.462Z,14140.00
2023-04-26T05:29:11.433Z,13246.00
2023-04-26T05:30:11.455Z,13341.00
2023-04-26T05:31:11.717Z,13130.00
2023-04-26T05:32:11.530Z,12014.00
2023-04-26T05:33:11.445Z,11418.00
2023-04-26T05:34:11.408Z,11179.00
2023-04-26T05:35:11.471Z,11192.00
2023-04-26T05:36:11.402Z,11470.00
2023-04-26T05:37:11.380Z,11694.00
2023-04-26T05:38:11.389Z,13624.00
2023-04-26T05:39:11.386Z,14791.00
2023-04-26T05:40:11.387Z,14807.00
2023-04-26T05:41:11.360Z,15742.00
2023-04-26T05:42:11.370Z,17033.00
2023-04-26T05:43:11.391Z,18001.00
2023-04-26T05:44:11.361Z,16468.00
2023-04-26T05:45:11.333Z,15829.00
2023-04-26T05:46:11.417Z,14183.00
2023-04-26T05:47:11.321Z,10587.00
2023-04-26T05:48:11.356Z,11629.00
2023-04-26T05:49:11.349Z,11646.00
2023-04-26T05:50:11.313Z,14180.00
2023-04-26T05:51:11.304Z,11170.00
2023-04-26T05:52:11.317Z,14396.00
2023-04-26T05:53:11.297Z,19227.00
2023-04-26T05:54:11.304Z,19988.00
2023-04-26T05:55:11.315Z,19068.00
2023-04-26T05:56:11.286Z,22506.00
2023-04-26T05:57:11.309Z,22099.00
2023-04-26T05:58:11.278Z,20144.00
2023-04-26T05:59:11.258Z,17325.00
2023-04-26T06:00:11.256Z,18317.00
2023-04-26T06:01:11.253Z,21601.00
2023-04-26T06:02:11.255Z,21211.00
2023-04-26T06:03:11.433Z,20780.00
2023-04-26T06:04:11.629Z,19198.00
2023-04-26T06:05:11.362Z,18385.00
2023-04-26T06:06:11.226Z,19115.00
2023-04-26T06:07:11.217Z,19886.00
2023-04-26T06:08:11.221Z,18117.00
2023-04-26T06:09:11.174Z,18707.00
2023-04-26T06:10:11.191Z,19478.00
2023-04-26T06:11:11.169Z,19639.00
2023-04-26T06:12:11.310Z,19953.00
2023-04-26T06:13:11.166Z,21010.00
2023-04-26T06:14:23.148Z,20989.00
2023-04-26T06:15:12.148Z,19828.00
2023-04-26T06:16:11.166Z,17509.00
2023-04-26T06:17:11.160Z,21733.00
2023-04-26T06:18:11.208Z,23872.00
2023-04-26T06:19:11.108Z,22349.00
2023-04-26T06:20:11.127Z,21538.00
2023-04-26T06:21:11.100Z,23926.00
2023-04-26T06:22:11.111Z,24421.00
2023-04-26T06:23:11.077Z,23376.00
2023-04-26T06:24:11.093Z,20985.00
2023-04-26T06:25:11.070Z,22160.00
2023-04-26T06:26:11.077Z,23207.00
2023-04-26T06:27:11.064Z,23382.00
2023-04-26T06:28:11.088Z,22228.00
2023-04-26T06:29:11.024Z,20824.00
2023-04-26T06:30:11.449Z,22704.00
2023-04-26T06:31:11.010Z,23727.00
2023-04-26T06:32:11.017Z,23953.00
2023-04-26T06:33:11.056Z,22829.00
2023-04-26T06:34:11.017Z,21174.00
2023-04-26T06:35:10.998Z,21802.00
2023-04-26T06:36:10.998Z,24485.00
2023-04-26T06:37:10.972Z,23433.00
2023-04-26T06:38:10.978Z,19551.00
2023-04-26T06:39:10.989Z,19510.00
2023-04-26T06:40:10.963Z,19828.00
2023-04-26T06:41:10.939Z,21771.00
2023-04-26T06:42:10.977Z,22365.00
2023-04-26T06:43:10.948Z,22788.00
2023-04-26T06:44:10.956Z,23091.00
2023-04-26T06:45:10.923Z,22446.00
2023-04-26T06:46:10.952Z,21981.00
2023-04-26T06:47:10.913Z,24677.00
2023-04-26T06:48:10.980Z,22484.00
2023-04-26T06:49:10.925Z,20686.00
2023-04-26T06:50:10.891Z,18883.00
2023-04-26T06:51:10.895Z,18544.00
2023-04-26T06:52:10.874Z,21427.00
2023-04-26T06:53:10.861Z,24274.00
2023-04-26T06:54:10.850Z,25748.00
2023-04-26T06:55:10.818Z,26627.00
2023-04-26T06:56:10.846Z,25441.00
2023-04-26T06:57:10.825Z,25980.00
2023-04-26T06:58:10.837Z,17290.00
2023-04-26T06:59:10.789Z,12450.00
2023-04-26T07:00:10.807Z,28205.00
2023-04-26T07:01:10.834Z,23579.00
2023-04-26T07:02:10.786Z,11669.00
2023-04-26T07:03:10.968Z,23715.00
2023-04-26T07:04:11.040Z,23682.00
2023-04-26T07:05:10.983Z,23469.00
2023-04-26T07:06:10.787Z,16043.00
2023-04-26T07:07:12.503Z,8195.00
2023-04-26T07:08:10.757Z,23950.00
2023-04-26T07:09:10.706Z,13425.00
2023-04-26T07:10:10.755Z,24387.00
2023-04-26T07:11:10.771Z,5622.00
2023-04-26T07:12:10.694Z,5839.00
2023-04-26T07:13:10.688Z,23384.00
2023-04-26T07:14:10.683Z,17295.00
2023-04-26T07:15:10.678Z,5567.00
2023-04-26T07:16:10.800Z,4938.00
2023-04-26T07:17:10.665Z,4350.00
2023-04-26T07:18:10.651Z,4014.00
2023-04-26T07:19:10.638Z,3949.00
2023-04-26T07:20:10.645Z,3842.00
2023-04-26T07:21:10.639Z,3709.00
2023-04-26T07:22:10.658Z,3562.00
2023-04-26T07:23:10.587Z,3403.00
2023-04-26T07:24:10.605Z,3232.00
2023-04-26T07:25:10.606Z,3070.00
2023-04-26T07:26:10.599Z,2918.00
2023-04-26T07:27:10.576Z,2785.00
2023-04-26T07:28:10.568Z,2726.00
2023-04-26T07:29:10.558Z,2711.00
2023-04-26T07:30:10.574Z,2769.00
2023-04-26T07:31:11.038Z,2705.00
2023-04-26T07:32:10.711Z,2706.00
2023-04-26T07:33:10.659Z,2714.00
2023-04-26T07:34:10.525Z,2714.00
2023-04-26T07:35:10.498Z,2711.00
2023-04-26T07:36:10.505Z,2674.00
2023-04-26T07:37:10.477Z,2643.00
2023-04-26T07:38:10.476Z,2576.00
2023-04-26T07:39:10.481Z,2603.00
2023-04-26T07:40:10.514Z,2652.00
2023-04-26T07:41:10.445Z,2699.00
2023-04-26T07:42:10.490Z,2886.00
2023-04-26T07:43:10.440Z,3542.00
2023-04-26T07:44:10.463Z,22653.00
2023-04-26T07:45:10.430Z,22382.00
2023-04-26T07:46:10.444Z,5067.00
2023-04-26T07:47:10.388Z,3849.00
2023-04-26T07:48:10.429Z,3688.00
2023-04-26T07:49:10.459Z,3482.00
2023-04-26T07:50:10.388Z,3062.00
2023-04-26T07:51:10.355Z,5576.00
2023-04-26T07:52:10.363Z,8619.00
2023-04-26T07:53:10.362Z,3608.00
2023-04-26T07:54:10.373Z,2922.00
2023-04-26T07:55:10.355Z,2767.00
2023-04-26T07:56:10.365Z,2683.00
2023-04-26T07:57:10.330Z,2638.00
2023-04-26T07:58:10.328Z,2607.00
2023-04-26T07:59:10.326Z,2564.00
2023-04-26T08:00:10.354Z,2598.00
2023-04-26T08:01:10.282Z,2657.00
2023-04-26T08:02:10.308Z,2728.00
2023-04-26T08:03:10.496Z,3185.00
2023-04-26T08:04:10.747Z,10262.00
2023-04-26T08:05:10.382Z,9675.00
2023-04-26T08:06:10.421Z,7437.00
2023-04-26T08:07:10.240Z,11494.00
2023-04-26T08:08:10.259Z,11595.00
2023-04-26T08:09:10.231Z,12139.00
2023-04-26T08:10:10.298Z,5433.00
2023-04-26T08:11:10.201Z,3905.00
2023-04-26T08:12:10.257Z,3327.00
2023-04-26T08:13:10.223Z,3036.00
2023-04-26T08:14:10.214Z,2827.00
2023-04-26T08:15:10.178Z,2721.00
2023-04-26T08:16:10.449Z,2657.00
2023-04-26T08:17:10.252Z,2568.00
2023-04-26T08:18:10.190Z,2456.00
2023-04-26T08:19:10.178Z,2316.00
2023-04-26T08:20:10.161Z,2198.00
2023-04-26T08:21:10.136Z,2143.00
2023-04-26T08:22:10.152Z,2110.00
2023-04-26T08:23:10.134Z,2081.00
2023-04-26T08:24:10.123Z,2071.00
2023-04-26T08:25:10.104Z,2043.00
2023-04-26T08:26:10.107Z,2012.00
2023-04-26T08:27:10.132Z,1991.00
2023-04-26T08:28:10.103Z,1943.00
2023-04-26T08:29:10.130Z,1901.00
2023-04-26T08:30:10.106Z,1886.00
2023-04-26T08:31:10.214Z,1889.00
2023-04-26T08:32:10.063Z,1902.00
2023-04-26T08:33:10.113Z,1956.00
2023-04-26T08:34:10.055Z,2070.00
2023-04-26T08:35:10.081Z,2507.00
2023-04-26T08:36:10.147Z,15494.00
2023-04-26T08:37:10.061Z,14267.00
2023-04-26T08:38:10.013Z,13757.00
2023-04-26T08:39:10.043Z,13458.00
2023-04-26T08:40:10.083Z,14381.00
2023-04-26T08:41:10.006Z,16207.00
2023-04-26T08:42:10.019Z,16400.00
2023-04-26T08:43:09.974Z,16262.00
2023-04-26T08:44:10.014Z,15619.00
2023-04-26T08:45:09.949Z,14981.00
2023-04-26T08:46:10.004Z,5730.00
2023-04-26T08:47:09.952Z,4351.00
2023-04-26T08:48:09.980Z,4138.00
2023-04-26T08:49:09.936Z,3706.00
2023-04-26T08:50:09.950Z,3657.00
2023-04-26T08:51:09.928Z,3606.00
2023-04-26T08:52:09.932Z,3495.00
2023-04-26T08:53:09.922Z,3349.00
2023-04-26T08:54:09.915Z,3148.00
2023-04-26T08:55:09.885Z,3025.00
2023-04-26T08:56:09.899Z,2895.00
2023-04-26T08:57:09.898Z,2808.00
2023-04-26T08:58:09.877Z,2788.00
2023-04-26T08:59:09.866Z,2802.00
2023-04-26T09:00:09.877Z,2825.00
2023-04-26T09:01:09.903Z,2871.00
2023-04-26T09:02:09.942Z,2882.00
2023-04-26T09:03:09.934Z,2862.00
2023-04-26T09:04:09.989Z,2832.00
2023-04-26T09:05:09.954Z,2807.00
2023-04-26T09:06:09.817Z,2792.00
2023-04-26T09:07:09.803Z,2814.00
2023-04-26T09:08:09.857Z,2840.00
2023-04-26T09:09:09.783Z,2836.00
2023-04-26T09:10:09.791Z,2787.00
2023-04-26T09:11:09.756Z,2760.00
2023-04-26T09:12:09.783Z,2797.00
2023-04-26T09:13:09.752Z,3912.00
2023-04-26T09:14:09.760Z,8425.00
2023-04-26T09:15:09.750Z,9452.00
2023-04-26T09:16:09.784Z,10248.00
2023-04-26T09:17:09.714Z,11250.00
2023-04-26T09:18:09.726Z,10700.00
2023-04-26T09:19:09.697Z,10325.00
2023-04-26T09:20:09.707Z,11499.00
2023-04-26T09:21:09.701Z,10997.00
2023-04-26T09:22:09.701Z,10749.00
2023-04-26T09:23:09.695Z,10814.00
2023-04-26T09:24:09.695Z,4304.00
2023-04-26T09:25:09.641Z,4324.00
2023-04-26T09:26:09.652Z,4250.00
2023-04-26T09:27:09.627Z,4198.00
2023-04-26T09:28:09.649Z,4072.00
2023-04-26T09:29:09.634Z,3977.00
2023-04-26T09:30:09.649Z,3896.00
2023-04-26T09:31:09.649Z,3843.00
2023-04-26T09:32:09.631Z,3794.00
2023-04-26T09:33:09.779Z,3755.00
2023-04-26T09:34:09.613Z,3721.00
2023-04-26T09:35:09.579Z,3635.00
2023-04-26T09:36:09.581Z,3588.00
2023-04-26T09:37:09.573Z,3546.00
2023-04-26T09:38:12.773Z,3370.00
2023-04-26T09:39:09.537Z,3214.00
2023-04-26T09:40:09.542Z,3102.00
2023-04-26T09:41:09.532Z,3033.00
2023-04-26T09:42:09.577Z,2994.00
2023-04-26T09:43:09.512Z,3030.00
2023-04-26T09:44:09.538Z,3062.00
2023-04-26T09:45:09.482Z,3073.00
2023-04-26T09:46:09.499Z,3077.00
2023-04-26T09:47:09.578Z,3076.00
2023-04-26T09:48:09.500Z,3066.00
2023-04-26T09:49:09.461Z,3035.00
2023-04-26T09:50:09.473Z,3000.00
2023-04-26T09:51:09.485Z,2957.00
2023-04-26T09:52:09.461Z,2926.00
2023-04-26T09:53:09.432Z,2949.00
2023-04-26T09:54:09.438Z,3015.00
2023-04-26T09:55:12.589Z,3065.00
2023-04-26T09:56:10.512Z,3110.00
2023-04-26T09:57:09.397Z,3175.00
2023-04-26T09:58:09.402Z,3350.00
2023-04-26T09:59:09.370Z,3643.00
2023-04-26T10:00:09.391Z,3425.00
2023-04-26T10:01:09.449Z,3457.00
2023-04-26T10:02:09.375Z,3499.00
2023-04-26T10:03:09.512Z,3550.00
2023-04-26T10:04:09.445Z,3615.00
2023-04-26T10:05:09.323Z,3720.00
2023-04-26T10:06:09.318Z,3768.00
2023-04-26T10:07:09.312Z,3795.00
2023-04-26T10:08:09.356Z,3868.00
2023-04-26T10:09:09.292Z,3994.00
2023-04-26T10:10:09.350Z,4327.00
2023-04-26T10:11:09.298Z,4766.00
2023-04-26T10:12:09.303Z,4775.00
2023-04-26T10:13:09.299Z,4787.00
2023-04-26T10:14:09.297Z,4781.00
2023-04-26T10:15:09.245Z,4677.00
2023-04-26T10:16:09.303Z,4554.00
2023-04-26T10:17:09.219Z,4360.00
2023-04-26T10:18:09.304Z,4176.00
2023-04-26T10:19:09.232Z,4016.00
2023-04-26T10:20:09.214Z,3889.00
2023-04-26T10:21:09.241Z,3790.00
2023-04-26T10:22:09.227Z,3650.00
2023-04-26T10:23:09.177Z,3485.00
2023-04-26T10:24:09.208Z,3331.00
2023-04-26T10:25:09.146Z,3217.00
2023-04-26T10:26:09.208Z,3138.00
2023-04-26T10:27:09.142Z,3079.00
2023-04-26T10:28:09.138Z,3071.00
2023-04-26T10:29:09.407Z,3117.00
2023-04-26T10:30:09.160Z,3101.00
2023-04-26T10:31:09.096Z,3100.00
2023-04-26T10:32:09.244Z,3143.00
2023-04-26T10:33:09.141Z,3262.00
2023-04-26T10:34:10.813Z,3259.00
2023-04-26T10:35:09.071Z,3438.00
2023-04-26T10:36:09.110Z,3592.00
2023-04-26T10:37:09.125Z,3625.00
2023-04-26T10:38:09.070Z,3604.00
2023-04-26T10:39:09.040Z,3479.00
2023-04-26T10:40:09.052Z,3453.00
2023-04-26T10:41:09.029Z,3409.00
2023-04-26T10:42:09.033Z,3341.00
2023-04-26T10:43:09.042Z,3226.00
2023-04-26T10:44:09.034Z,3122.00
2023-04-26T10:45:08.995Z,3039.00
2023-04-26T10:46:09.018Z,2986.00
2023-04-26T10:47:08.983Z,2941.00
2023-04-26T10:48:09.012Z,2902.00
2023-04-26T10:49:08.986Z,2859.00
2023-04-26T10:50:09.160Z,2796.00
2023-04-26T10:51:08.947Z,2760.00
2023-04-26T10:52:08.953Z,2745.00
2023-04-26T10:53:08.930Z,2720.00
2023-04-26T10:54:08.959Z,2686.00
2023-04-26T10:55:08.917Z,2642.00
2023-04-26T10:56:08.911Z,2616.00
2023-04-26T10:57:08.900Z,2602.00
2023-04-26T10:58:08.927Z,2571.00
2023-04-26T10:59:28.527Z,2533.00
2023-04-26T11:00:09.917Z,2491.00
2023-04-26T11:01:08.889Z,2457.00
2023-04-26T11:02:08.878Z,2399.00
2023-04-26T11:03:09.027Z,2365.00
2023-04-26T11:04:08.954Z,2360.00
2023-04-26T11:05:08.846Z,2340.00
2023-04-26T11:06:08.837Z,2326.00
2023-04-26T11:07:08.805Z,2302.00
2023-04-26T11:08:08.834Z,2262.00
2023-04-26T11:09:08.782Z,2231.00
2023-04-26T11:10:08.809Z,2190.00
2023-04-26T11:11:08.803Z,2153.00
2023-04-26T11:12:08.784Z,2139.00
2023-04-26T11:13:08.772Z,2141.00
2023-04-26T11:14:08.787Z,2164.00
2023-04-26T11:15:08.801Z,2185.00
2023-04-26T11:16:08.842Z,2204.00
2023-04-26T11:17:08.730Z,2211.00
2023-04-26T11:18:08.816Z,2234.00
2023-04-26T11:19:08.778Z,2227.00
2023-04-26T11:20:08.734Z,2234.00
2023-04-26T11:21:08.701Z,2268.00
2023-04-26T11:22:08.714Z,2273.00
2023-04-26T11:23:08.683Z,2244.00
2023-04-26T11:24:08.721Z,2201.00
2023-04-26T11:25:08.654Z,2166.00
2023-04-26T11:26:08.853Z,2164.00
2023-04-26T11:27:08.721Z,2194.00
2023-04-26T11:28:08.695Z,2254.00
2023-04-26T11:29:08.629Z,2345.00
2023-04-26T11:30:08.637Z,2496.00
2023-04-26T11:31:08.667Z,2714.00
2023-04-26T11:32:08.620Z,3037.00
2023-04-26T11:33:08.632Z,3894.00
2023-04-26T11:34:08.617Z,3440.00
2023-04-26T11:35:08.612Z,3622.00
2023-04-26T11:36:08.600Z,3693.00
2023-04-26T11:37:08.580Z,3823.00
2023-04-26T11:38:08.585Z,4189.00
2023-04-26T11:39:08.596Z,3809.00
2023-04-26T11:40:08.575Z,3610.00
2023-04-26T11:41:08.528Z,3476.00
2023-04-26T11:42:08.555Z,3401.00
2023-04-26T11:43:08.526Z,3318.00
2023-04-26T11:44:08.700Z,3244.00
2023-04-26T11:45:08.522Z,3190.00
2023-04-26T11:46:08.606Z,3160.00
2023-04-26T11:47:08.649Z,3109.00
2023-04-26T11:48:08.512Z,3023.00
2023-04-26T11:49:08.493Z,2896.00
2023-04-26T11:50:08.470Z,2745.00
2023-04-26T11:51:08.565Z,2604.00
2023-04-26T11:52:08.476Z,2549.00
2023-04-26T11:53:08.459Z,2575.00
2023-04-26T11:54:08.471Z,2662.00
2023-04-26T11:55:08.508Z,2841.00
2023-04-26T11:56:08.463Z,2897.00
2023-04-26T11:57:08.426Z,3031.00
2023-04-26T11:58:08.438Z,3122.00
2023-04-26T11:59:08.399Z,3180.00
2023-04-26T12:00:08.427Z,3240.00
2023-04-26T12:01:08.409Z,3309.00
2023-04-26T12:02:08.512Z,3470.00
2023-04-26T12:03:08.629Z,3506.00
2023-04-26T12:04:08.549Z,3603.00
2023-04-26T12:05:08.409Z,3530.00
2023-04-26T12:06:08.388Z,3539.00
2023-04-26T12:07:08.337Z,3536.00
2023-04-26T12:08:08.393Z,3484.00
2023-04-26T12:09:08.316Z,3433.00
2023-04-26T12:10:08.327Z,3393.00
2023-04-26T12:11:08.307Z,3388.00
2023-04-26T12:12:08.374Z,3397.00
2023-04-26T12:13:08.279Z,3577.00
2023-04-26T12:14:08.289Z,3710.00
2023-04-26T12:15:08.282Z,3932.00
2023-04-26T12:16:22.217Z,3970.00
2023-04-26T12:17:09.290Z,3957.00
2023-04-26T12:18:08.260Z,3926.00
2023-04-26T12:19:08.247Z,4081.00
2023-04-26T12:20:08.254Z,4070.00
2023-04-26T12:21:08.218Z,4084.00
2023-04-26T12:22:08.270Z,4050.00
2023-04-26T12:23:08.198Z,3497.00